Time;durP1;ratioP1;P1;durP2;ratioP2;P2;SDS_P1;SDS_P2;PMS_P1;PMS_P2;Temp;Humidity;BMP_temperature;BMP_pressure;BME280_temperature;BME280_humidity;BME280_pressure;Samples;Min_cycle;Max_cycle;Signal;HPM_P1;HPM_P2
2021/11/10 00:00:22;;;;;;;46.42;24.05;;;;;;;4.02;100.00;101955.63;6272754;28;20041;-74
2021/11/10 00:03:23;;;;;;;46.88;24.65;;;;;;;4.02;100.00;101965.97;6271808;28;20055;-74
2021/11/10 00:06:23;;;;;;;41.70;23.50;;;;;;;2.64;100.00;101966.88;6272567;28;20124;-74
2021/11/10 00:09:24;;;;;;;43.40;25.92;;;;;;;2.25;100.00;101973.63;6271462;28;20510;-74
2021/11/10 00:12:26;;;;;;;44.50;24.55;;;;;;;2.08;100.00;101972.69;6271265;28;20112;-74
2021/11/10 00:15:26;;;;;;;46.47;24.35;;;;;;;1.98;100.00;101964.94;6272416;28;20424;-73
2021/11/10 00:18:27;;;;;;;40.63;24.38;;;;;;;1.92;100.00;101967.47;6271061;28;20041;-74
2021/11/10 00:21:29;;;;;;;41.20;23.75;;;;;;;1.88;100.00;101945.13;6271041;28;20043;-73
2021/11/10 00:24:30;;;;;;;51.70;29.63;;;;;;;1.71;100.00;101928.72;6272178;28;20041;-73
2021/11/10 00:27:31;;;;;;;46.83;23.90;;;;;;;1.73;100.00;101935.63;6271549;28;20043;-74
2021/11/10 00:30:32;;;;;;;40.60;23.75;;;;;;;1.78;100.00;101954.50;6272050;28;20257;-74
2021/11/10 00:33:33;;;;;;;42.47;24.30;;;;;;;1.85;100.00;101950.25;6271968;28;20404;-74
2021/11/10 00:36:34;;;;;;;40.63;23.15;;;;;;;1.87;100.00;101940.81;6270760;28;20037;-74
2021/11/10 00:39:40;;;;;;;36.53;21.48;;;;;;;1.81;100.00;101941.66;6270575;28;20045;-74
2021/11/10 00:42:41;;;;;;;47.08;24.95;;;;;;;1.78;100.00;101963.97;6271818;28;20484;-74
2021/11/10 00:45:42;;;;;;;43.80;23.20;;;;;;;1.74;100.00;101969.94;6272162;28;20045;-74
2021/11/10 00:48:43;;;;;;;35.30;22.10;;;;;;;1.76;100.00;101955.38;6270566;28;20503;-74
2021/11/10 00:51:44;;;;;;;39.05;21.40;;;;;;;1.82;100.00;101950.25;6270377;28;20388;-74
2021/11/10 00:54:45;;;;;;;36.80;20.52;;;;;;;1.80;100.00;101945.09;6270185;28;20142;-74
2021/11/10 00:57:45;;;;;;;36.97;19.75;;;;;;;1.80;100.00;101951.94;6270200;28;20496;-74
2021/11/10 01:00:47;;;;;;;33.08;19.90;;;;;;;1.79;100.00;101950.22;6270220;28;20071;-74
2021/11/10 01:03:48;;;;;;;33.45;19.73;;;;;;;1.82;100.00;101942.53;6271453;28;20048;-74
2021/11/10 01:06:48;;;;;;;33.90;20.55;;;;;;;1.80;100.00;101939.94;6270028;28;20127;-74
2021/11/10 01:09:54;;;;;;;36.45;20.08;;;;;;;1.78;100.00;101941.63;6271534;28;20152;-74
2021/11/10 01:12:55;;;;;;;35.53;20.20;;;;;;;1.77;100.00;101946.78;6253264;28;20419;-74
2021/11/10 01:15:56;;;;;;;36.40;21.25;;;;;;;1.66;100.00;101953.59;6270007;28;20044;-74
2021/11/10 01:18:56;;;;;;;34.33;19.95;;;;;;;1.60;100.00;101952.69;6271037;28;20047;-74
2021/11/10 01:21:57;;;;;;;35.30;20.02;;;;;;;1.52;100.00;101949.19;6271357;28;20044;-74
2021/11/10 01:24:58;;;;;;;36.63;21.38;;;;;;;1.52;100.00;101953.47;6271009;28;20049;-74
2021/11/10 01:27:59;;;;;;;30.85;18.90;;;;;;;1.50;100.00;101944.91;6270801;28;20056;-74
2021/11/10 01:31:00;;;;;;;32.83;19.80;;;;;;;1.54;100.00;101944.06;6269792;28;20067;-74
2021/11/10 01:34:07;;;;;;;37.28;20.13;;;;;;;1.50;100.00;101937.19;6270860;28;20476;-74
2021/11/10 01:37:08;;;;;;;30.40;17.88;;;;;;;1.48;100.00;101934.59;6269726;28;20049;-74
2021/11/10 01:40:11;;;;;;;37.03;20.38;;;;;;;1.40;100.00;101936.25;6271394;28;20052;-74
2021/11/10 01:43:16;;;;;;;34.00;21.52;;;;;;;1.35;100.00;101948.22;6274931;28;20041;-73
2021/11/10 01:46:17;;;;;;;34.13;19.13;;;;;;;1.26;100.00;101943.03;6275850;28;20043;-73
2021/11/10 01:49:18;;;;;;;34.03;18.48;;;;;;;1.15;100.00;101940.34;6275774;28;20140;-73
2021/11/10 01:52:19;;;;;;;29.77;17.15;;;;;;;1.26;100.00;101951.59;6274930;28;20053;-74
2021/11/10 01:55:20;;;;;;;33.42;17.35;;;;;;;1.28;100.00;101946.47;6259107;28;20076;-73
2021/11/10 01:58:21;;;;;;;28.50;17.80;;;;;;;1.31;100.00;101954.19;6295776;28;20047;-74
2021/11/10 02:01:22;;;;;;;36.95;17.70;;;;;;;1.32;100.00;101954.22;6291493;28;20041;-73
2021/11/10 02:04:26;;;;;;;27.55;16.92;;;;;;;1.29;100.00;101955.91;6275505;28;20051;-73
2021/11/10 02:07:27;;;;;;;30.50;16.77;;;;;;;1.24;100.00;101952.44;6276418;28;20071;-73
2021/11/10 02:10:29;;;;;;;30.10;17.70;;;;;;;1.21;100.00;101950.69;6275298;28;20049;-74
2021/11/10 02:13:30;;;;;;;30.52;16.98;;;;;;;1.17;100.00;101956.66;6276351;28;20094;-73
2021/11/10 02:16:31;;;;;;;27.83;17.05;;;;;;;1.17;100.00;101957.53;6276273;28;20432;-73
2021/11/10 02:19:33;;;;;;;27.38;17.25;;;;;;;1.04;100.00;101945.41;6276144;28;20049;-72
2021/11/10 02:22:35;;;;;;;30.67;17.60;;;;;;;0.97;100.00;101944.50;6278263;28;20048;-72
2021/11/10 02:25:36;;;;;;;31.77;18.38;;;;;;;1.00;100.00;101959.09;6276275;28;20033;-72
2021/11/10 02:28:38;;;;;;;28.58;16.48;;;;;;;1.04;100.00;101953.13;6275981;28;20055;-72
2021/11/10 02:31:39;;;;;;;30.08;16.83;;;;;;;1.04;100.00;101958.25;6258551;28;20049;-72
2021/11/10 02:34:43;;;;;;;30.85;16.42;;;;;;;1.03;100.00;101948.84;6275817;28;20049;-72
2021/11/10 02:37:47;;;;;;;28.38;16.38;;;;;;;0.99;100.00;101947.09;6274767;28;20040;-72
2021/11/10 02:40:52;;;;;;;27.08;15.70;;;;;;;0.99;100.00;101947.09;6257586;28;20118;-72
2021/11/10 02:43:53;;;;;;;28.58;16.77;;;;;;;0.93;100.00;101967.59;6275461;28;20049;-72
2021/11/10 02:46:54;;;;;;;30.88;15.95;;;;;;;0.92;100.00;101956.44;6274413;28;20049;-72
2021/11/10 02:49:55;;;;;;;28.55;15.93;;;;;;;0.90;100.00;101952.13;6275521;28;20094;-72
2021/11/10 02:52:55;;;;;;;27.02;15.05;;;;;;;0.85;100.00;101948.69;6298356;28;20045;-72
2021/11/10 02:55:56;;;;;;;24.90;15.55;;;;;;;0.84;100.00;101947.78;6299156;28;20068;-72
2021/11/10 02:58:57;;;;;;;28.33;15.85;;;;;;;0.76;100.00;101950.31;6300071;28;20045;-72
2021/11/10 03:01:59;;;;;;;22.95;15.27;;;;;;;0.77;100.00;101944.31;6300137;28;20044;-72
2021/11/10 03:05:00;;;;;;;27.35;15.93;;;;;;;0.82;100.00;101951.19;6298981;28;20399;-72
2021/11/10 03:08:01;;;;;;;26.67;14.80;;;;;;;0.75;100.00;101955.44;6298684;28;20071;-72
2021/11/10 03:11:01;;;;;;;28.35;15.35;;;;;;;0.69;100.00;101953.66;6299813;28;20037;-72
2021/11/10 03:14:02;;;;;;;25.75;15.77;;;;;;;0.63;100.00;101953.59;6299850;28;20484;-72
2021/11/10 03:17:05;;;;;;;27.45;15.43;;;;;;;0.62;100.00;101951.88;6298632;28;20101;-72
2021/11/10 03:20:07;;;;;;;28.05;15.80;;;;;;;0.58;100.00;101955.25;6299543;28;20045;-72
2021/11/10 03:23:09;;;;;;;24.45;14.43;;;;;;;0.63;100.00;101955.31;6298547;28;20052;-72
2021/11/10 03:26:10;;;;;;;28.02;16.52;;;;;;;0.60;100.00;101958.72;6299601;28;20041;-72
2021/11/10 03:29:11;;;;;;;27.40;15.05;;;;;;;0.62;100.00;101959.59;6298127;28;20037;-72
2021/11/10 03:32:12;;;;;;;24.95;15.52;;;;;;;0.52;100.00;101948.34;6299488;28;20064;-72
2021/11/10 03:35:13;;;;;;;25.38;15.45;;;;;;;0.54;100.00;101953.50;6298171;28;20360;-72
2021/11/10 03:38:15;;;;;;;28.77;15.77;;;;;;;0.56;100.00;101957.81;6298184;28;20075;-72
2021/11/10 03:41:16;;;;;;;27.90;16.15;;;;;;;0.52;100.00;101943.22;6299022;28;20476;-72
2021/11/10 03:44:17;;;;;;;28.10;16.33;;;;;;;0.47;100.00;101954.28;6299299;28;20053;-72
2021/11/10 03:47:18;;;;;;;22.65;14.25;;;;;;;0.46;100.00;101953.41;6297762;28;20055;-72
2021/11/10 03:50:19;;;;;;;31.17;17.40;;;;;;;0.41;100.00;101942.22;6296512;28;20059;-72
2021/11/10 03:53:20;;;;;;;28.35;16.63;;;;;;;0.38;100.00;101943.03;6255076;28;20431;-72
2021/11/10 03:56:21;;;;;;;28.73;16.50;;;;;;;0.32;100.00;101934.41;6276863;28;20062;-72
2021/11/10 03:59:22;;;;;;;28.58;16.75;;;;;;;0.34;100.00;101927.59;6279814;28;20041;-72
2021/11/10 04:02:23;;;;;;;28.25;16.92;;;;;;;0.34;100.00;101927.59;6287531;28;20499;-72
2021/11/10 04:05:25;;;;;;;28.55;17.38;;;;;;;0.28;100.00;101918.09;6272797;28;20399;-72
2021/11/10 04:08:26;;;;;;;32.28;19.02;;;;;;;0.27;100.00;101916.41;6272586;28;20045;-72
2021/11/10 04:11:26;;;;;;;27.85;16.98;;;;;;;0.23;100.00;101901.81;6272929;28;20050;-72
2021/11/10 04:14:27;;;;;;;28.40;16.85;;;;;;;0.30;100.00;101918.13;6289723;28;20495;-72
2021/11/10 04:17:28;;;;;;;30.33;16.95;;;;;;;0.25;100.00;101910.38;6287380;28;20134;-72
2021/11/10 04:20:29;;;;;;;32.97;17.73;;;;;;;0.19;100.00;101923.16;6254433;28;20123;-72
2021/11/10 04:23:31;;;;;;;33.47;18.73;;;;;;;0.15;100.00;101921.41;6271172;28;20117;-72
2021/11/10 04:26:36;;;;;;;30.80;17.00;;;;;;;0.06;100.00;101914.41;6272272;28;20037;-72
2021/11/10 04:29:37;;;;;;;100.82;43.72;;;;;;;0.14;100.00;101917.94;6272080;28;20480;-72
2021/11/10 04:32:39;;;;;;;83.07;40.53;;;;;;;0.15;100.00;101913.69;6271059;28;20036;-72
2021/11/10 04:35:41;;;;;;;78.60;36.70;;;;;;;0.11;100.00;101912.78;6272010;28;20441;-72
2021/11/10 04:38:42;;;;;;;76.70;36.42;;;;;;;0.16;100.00;101917.97;6270715;28;20048;-72
2021/11/10 04:41:43;;;;;;;69.47;34.38;;;;;;;0.12;100.00;101909.34;6270513;28;20048;-72
2021/11/10 04:44:47;;;;;;;67.95;32.10;;;;;;;0.11;100.00;101919.63;6253902;28;20049;-72
2021/11/10 04:47:48;;;;;;;52.78;26.85;;;;;;;0.00;100.00;101927.22;6271606;28;20063;-72
2021/11/10 04:50:48;;;;;;;53.10;29.25;;;;;;;-0.05;100.00;101911.72;6291366;28;20487;-72
2021/11/10 04:53:49;;;;;;;45.97;26.23;;;;;;;0.03;100.00;101916.97;6296243;28;20491;-69
2021/11/10 04:56:50;;;;;;;46.55;25.05;;;;;;;0.09;100.00;101913.63;6296381;28;20423;-70
2021/11/10 04:59:51;;;;;;;45.05;24.70;;;;;;;0.06;100.00;101904.16;6296003;28;20037;-69
2021/11/10 05:02:52;;;;;;;43.33;24.45;;;;;;;0.08;100.00;101914.44;6278512;28;20083;-69
2021/11/10 05:05:53;;;;;;;41.47;23.23;;;;;;;0.08;100.00;101914.44;6296228;28;20041;-69
2021/11/10 05:08:53;;;;;;;44.10;22.60;;;;;;;-0.03;100.00;101906.63;6294871;28;20045;-69
2021/11/10 05:11:54;;;;;;;41.63;22.13;;;;;;;-0.03;100.00;101915.19;6278231;28;20044;-69
2021/11/10 05:14:56;;;;;;;33.95;20.58;;;;;;;-0.10;100.00;101908.25;6295997;28;20499;-70
2021/11/10 05:17:57;;;;;;;31.48;19.02;;;;;;;-0.02;100.00;101928.91;6294735;28;20071;-70
2021/11/10 05:20:58;;;;;;;32.10;19.90;;;;;;;-0.13;100.00;101925.31;6277822;28;20048;-70
2021/11/10 05:23:59;;;;;;;33.28;20.25;;;;;;;-0.09;100.00;101933.06;6278202;28;20426;-69
2021/11/10 05:27:00;;;;;;;41.08;21.85;;;;;;;-0.02;100.00;101931.47;6294815;28;20139;-70
2021/11/10 05:30:00;;;;;;;47.92;22.50;;;;;;;0.03;100.00;101934.94;6294576;28;20105;-69
2021/11/10 05:33:02;;;;;;;66.63;25.88;;;;;;;0.27;100.00;101939.50;6295835;28;20552;-70
2021/11/10 05:36:03;;;;;;;63.20;23.00;;;;;;;0.18;100.00;101937.69;6294538;28;20483;-70
2021/11/10 05:39:07;;;;;;;110.57;24.17;;;;;;;0.18;100.00;101952.22;6295645;28;20044;-69
2021/11/10 05:42:08;;;;;;;48.40;22.38;;;;;;;0.18;100.00;101945.38;6277393;28;20484;-70
2021/11/10 05:45:09;;;;;;;123.82;23.52;;;;;;;0.12;100.00;101941.88;6236936;28;20055;-69
2021/11/10 05:48:10;;;;;;;153.52;23.20;;;;;;;0.16;100.00;101947.06;6269394;28;20052;-70
2021/11/10 05:51:11;;;;;;;204.32;23.38;;;;;;;0.14;100.00;101953.88;6270579;28;20041;-69
2021/11/10 05:54:13;;;;;;;86.25;22.17;;;;;;;0.20;100.00;101969.38;6278162;28;20047;-69
2021/11/10 05:57:14;;;;;;;74.33;22.97;;;;;;;0.24;100.00;101960.00;6275133;28;20045;-69
2021/11/10 06:00:15;;;;;;;59.90;21.30;;;;;;;0.32;100.00;101970.38;6269378;28;20037;-69
2021/11/10 06:03:16;;;;;;;102.25;35.60;;;;;;;0.31;100.00;101968.63;6293600;28;20062;-70
2021/11/10 06:06:17;;;;;;;117.07;37.30;;;;;;;0.38;100.00;101958.47;6295550;28;20045;-69
2021/11/10 06:09:18;;;;;;;164.65;40.03;;;;;;;0.37;100.00;101963.56;6294065;28;20106;-70
2021/11/10 06:12:18;;;;;;;230.02;50.03;;;;;;;0.43;100.00;101963.63;6286923;28;20041;-69
2021/11/10 06:15:19;;;;;;;280.30;58.80;;;;;;;0.42;100.00;101969.63;6294667;28;20045;-69
2021/11/10 06:18:20;;;;;;;147.43;29.58;;;;;;;0.37;100.00;101977.28;6278403;28;20045;-69
2021/11/10 06:21:21;;;;;;;160.95;20.95;;;;;;;0.38;100.00;101983.28;6278268;28;20041;-69
2021/11/10 06:24:22;;;;;;;180.57;20.35;;;;;;;0.32;100.00;101978.06;6271858;28;20159;-69
2021/11/10 06:27:23;;;;;;;105.43;20.63;;;;;;;0.34;100.00;101990.09;6274932;28;20098;-70
2021/11/10 06:30:24;;;;;;;111.45;20.33;;;;;;;0.47;100.00;101997.94;6277933;28;20407;-69
2021/11/10 06:33:25;;;;;;;106.45;22.55;;;;;;;0.54;100.00;101994.59;6280697;28;20056;-69
2021/11/10 06:36:27;;;;;;;62.90;24.35;;;;;;;0.56;100.00;101988.63;6280044;28;20150;-70
2021/11/10 06:39:28;;;;;;;84.32;26.48;;;;;;;0.65;100.00;101987.88;6297140;28;20044;-69
2021/11/10 06:42:29;;;;;;;78.63;28.08;;;;;;;0.62;100.00;101974.13;6299084;28;20040;-70
2021/11/10 06:45:30;;;;;;;85.78;25.60;;;;;;;0.68;100.00;101977.63;6281336;28;20399;-69
2021/11/10 06:48:30;;;;;;;97.00;22.65;;;;;;;0.77;100.00;101976.88;6297752;28;20502;-69
2021/11/10 06:51:32;;;;;;;68.70;22.23;;;;;;;0.74;100.00;101982.84;6281078;28;20106;-70
2021/11/10 06:54:32;;;;;;;89.40;25.17;;;;;;;0.81;100.00;101996.59;6264690;28;20047;-69
2021/11/10 06:57:34;;;;;;;66.43;23.10;;;;;;;0.85;100.00;101995.78;6298989;28;20037;-69
2021/11/10 07:00:35;;;;;;;75.70;19.65;;;;;;;0.85;100.00;101998.38;6297574;28;20041;-69
2021/11/10 07:03:36;;;;;;;81.50;20.30;;;;;;;0.82;100.00;101993.19;6298683;28;20055;-74
2021/11/10 07:06:37;;;;;;;86.53;20.63;;;;;;;0.98;100.00;101992.47;6297684;28;20376;-73
2021/11/10 07:09:38;;;;;;;103.85;20.63;;;;;;;1.06;100.00;101996.84;6280729;28;20487;-73
2021/11/10 07:12:39;;;;;;;116.00;21.98;;;;;;;1.17;100.00;101992.66;6298645;28;20069;-72
2021/11/10 07:15:40;;;;;;;90.03;20.95;;;;;;;1.18;100.00;101999.53;6280704;28;20123;-72
2021/11/10 07:18:41;;;;;;;124.82;21.27;;;;;;;1.28;100.00;101985.06;6298551;28;20179;-73
2021/11/10 07:21:41;;;;;;;72.45;17.95;;;;;;;1.39;100.00;101993.69;6298280;28;20097;-72
2021/11/10 07:24:42;;;;;;;69.88;19.30;;;;;;;1.34;100.00;101980.81;6297191;28;20044;-72
2021/11/10 07:27:43;;;;;;;55.92;18.70;;;;;;;1.43;100.00;101984.31;6297128;28;20041;-73
2021/11/10 07:30:45;;;;;;;76.95;20.48;;;;;;;1.27;100.00;101988.47;6289150;28;20045;-72
2021/11/10 07:33:46;;;;;;;109.45;21.20;;;;;;;1.32;100.00;101995.38;6297125;28;20085;-72
2021/11/10 07:36:46;;;;;;;78.15;20.60;;;;;;;1.38;100.00;101997.09;6279651;28;20048;-70
2021/11/10 07:39:47;;;;;;;78.47;21.05;;;;;;;1.37;100.00;102003.97;6296515;28;20049;-69
2021/11/10 07:42:48;;;;;;;98.15;20.90;;;;;;;1.39;100.00;102001.41;6276190;28;20041;-69
2021/11/10 07:45:56;;;;;;;77.47;20.08;;;;;;;1.53;100.00;101999.81;6271963;28;20049;-70
2021/11/10 07:48:58;;;;;;;127.25;20.30;;;;;;;1.49;100.00;102002.38;6271936;28;20051;-69
2021/11/10 07:51:59;;;;;;;67.22;20.00;;;;;;;1.54;100.00;102001.53;6275923;28;20052;-72
2021/11/10 07:55:00;;;;;;;140.68;21.10;;;;;;;1.65;100.00;102008.47;6280109;28;20047;-72
2021/11/10 07:58:02;;;;;;;96.47;23.90;;;;;;;1.71;100.00;102008.50;6297529;28;20453;-72
2021/11/10 08:01:03;;;;;;;155.88;25.00;;;;;;;1.85;100.00;102001.72;6282900;28;20040;-72
2021/11/10 08:04:04;;;;;;;213.20;29.38;;;;;;;1.96;100.00;101999.25;6268167;28;20206;-72
2021/11/10 08:07:04;;;;;;;79.05;26.55;;;;;;;2.19;100.00;101991.63;6273733;28;20037;-72
2021/11/10 08:10:07;;;;;;;150.00;31.60;;;;;;;2.22;100.00;101987.38;6279090;28;20060;-72
2021/11/10 08:13:09;;;;;;;122.00;25.75;;;;;;;2.33;100.00;102000.28;6296183;28;20052;-73
2021/11/10 08:16:10;;;;;;;130.63;23.13;;;;;;;2.49;100.00;102000.34;6286800;28;20049;-73
2021/11/10 08:19:11;;;;;;;71.68;23.17;;;;;;;2.64;100.00;102000.41;6272429;28;20048;-73
2021/11/10 08:22:12;;;;;;;50.38;21.38;;;;;;;2.71;100.00;102002.13;6272065;28;20135;-73
2021/11/10 08:25:16;;;;;;;60.60;20.73;;;;;;;2.79;100.00;102015.03;6271136;28;20052;-73
2021/11/10 08:28:18;;;;;;;59.00;21.17;;;;;;;2.86;100.00;102006.44;6272085;28;20072;-73
2021/11/10 08:31:19;;;;;;;80.75;23.08;;;;;;;3.10;100.00;102017.69;6271966;28;20048;-73
2021/11/10 08:34:20;;;;;;;94.05;23.95;;;;;;;3.11;100.00;102006.47;6254218;28;20045;-73
2021/11/10 08:37:20;;;;;;;46.05;22.48;;;;;;;3.20;100.00;102011.66;6271893;28;20041;-73
2021/11/10 08:40:21;;;;;;;105.40;22.42;;;;;;;3.15;100.00;102014.25;6271995;28;20045;-73
2021/11/10 08:43:23;;;;;;;48.13;19.52;;;;;;;3.18;100.00;102021.13;6270677;28;20045;-73
2021/11/10 08:46:25;;;;;;;63.33;21.90;;;;;;;3.27;100.00;102010.78;6271835;28;20041;-73
2021/11/10 08:49:26;;;;;;;81.05;28.13;;;;;;;3.31;100.00;102007.34;6270171;28;20480;-73
2021/11/10 08:52:27;;;;;;;43.75;23.05;;;;;;;3.28;100.00;102016.84;6270057;28;20053;-73
2021/11/10 08:55:28;;;;;;;54.80;20.27;;;;;;;3.39;100.00;102012.53;6271483;28;20044;-73
2021/11/10 08:58:29;;;;;;;37.30;17.20;;;;;;;3.54;100.00;102004.81;6270251;28;20396;-73
2021/11/10 09:01:31;;;;;;;30.38;17.65;;;;;;;3.68;100.00;102007.34;6271386;28;20118;-73
2021/11/10 09:04:33;;;;;;;38.40;18.38;;;;;;;3.71;100.00;102019.41;6271244;28;20061;-73
2021/11/10 09:07:35;;;;;;;30.13;18.10;;;;;;;3.88;100.00;102012.50;6271363;28;20043;-74
2021/11/10 09:10:36;;;;;;;37.63;16.60;;;;;;;4.11;100.00;102009.00;6271028;28;20048;-73
2021/11/10 09:13:37;;;;;;;25.27;17.27;;;;;;;4.22;100.00;102002.03;6271166;28;20044;-73
2021/11/10 09:16:38;;;;;;;34.75;17.67;;;;;;;4.35;100.00;102001.16;6271132;28;20040;-73
2021/11/10 09:19:39;;;;;;;53.30;16.77;;;;;;;4.19;100.00;101997.75;6253312;28;20399;-73
2021/11/10 09:22:41;;;;;;;34.88;18.65;;;;;;;4.38;100.00;101995.94;6269751;28;20480;-73
2021/11/10 09:25:44;;;;;;;35.67;19.42;;;;;;;4.57;100.00;101993.28;6269852;28;20041;-73
2021/11/10 09:28:44;;;;;;;35.55;16.10;;;;;;;4.37;100.00;101989.09;6269823;28;20522;-73
2021/11/10 09:31:47;;;;;;;29.25;17.98;;;;;;;4.72;100.00;101982.88;6269839;28;20522;-73
2021/11/10 09:34:48;;;;;;;34.40;17.58;;;;;;;4.78;100.00;101979.41;6270847;28;20553;-73
2021/11/10 09:37:52;;;;;;;33.15;18.70;;;;;;;4.70;100.00;101978.59;6270711;28;20051;-73
2021/11/10 09:40:58;;;;;;;29.95;18.13;;;;;;;5.05;100.00;101965.41;6270775;28;20070;-73
2021/11/10 09:44:00;;;;;;;30.00;18.65;;;;;;;5.29;100.00;101971.25;6253930;28;20059;-73
2021/11/10 09:47:03;;;;;;;34.40;21.00;;;;;;;5.59;100.00;101968.38;6269753;28;20037;-73
2021/11/10 09:50:05;;;;;;;34.42;20.65;;;;;;;6.11;100.00;101960.94;6269424;28;20076;-73
2021/11/10 09:53:06;;;;;;;29.73;19.23;;;;;;;6.28;100.00;101960.75;6269497;28;20088;-73
2021/11/10 09:56:07;;;;;;;26.45;18.05;;;;;;;6.27;100.00;101957.28;6269407;28;20037;-70
2021/11/10 09:59:09;;;;;;;30.50;18.63;;;;;;;6.46;100.00;101952.72;6269283;28;20041;-70
2021/11/10 10:02:12;;;;;;;25.50;16.58;;;;;;;6.78;100.00;101954.00;6256159;28;20056;-70
2021/11/10 10:05:14;;;;;;;26.70;17.13;;;;;;;6.99;100.00;101952.81;6275321;28;20151;-70
2021/11/10 10:08:17;;;;;;;24.42;15.57;;;;;;;7.27;100.00;101945.44;6275397;28;20495;-74
2021/11/10 10:11:19;;;;;;;28.10;17.15;;;;;;;7.48;100.00;101939.00;6275258;28;20079;-74
2021/11/10 10:14:20;;;;;;;28.20;17.83;;;;;;;7.58;100.00;101934.50;6274154;28;20045;-73
2021/11/10 10:17:43;;;;;;;25.58;15.98;;;;;;;7.85;100.00;101933.97;6273992;28;20072;-74
2021/11/10 10:20:44;;;;;;;;;;;;;;;8.02;100.00;101927.59;6275600;28;20048;-74
2021/11/10 10:23:49;;;;;;;23.30;15.73;;;;;;;8.18;100.00;101917.72;6290401;28;19921;-73
2021/11/10 10:26:50;;;;;;;27.95;16.95;;;;;;;8.30;100.00;101919.19;6275080;28;20079;-73
2021/11/10 10:30:11;;;;;;;;;;;;;;;8.43;100.00;101913.72;6274290;28;20095;-73
2021/11/10 10:33:22;;;;;;;20.77;14.00;;;;;;;8.71;100.00;101910.50;6274725;28;19920;-73
2021/11/10 10:36:28;;;;;;;22.58;14.57;;;;;;;8.89;100.00;101901.38;6274771;28;20499;-73
2021/11/10 10:39:28;;;;;;;24.33;15.07;;;;;;;8.90;100.00;101903.09;6274717;28;20550;-73
2021/11/10 10:42:37;;;;;;;21.70;14.10;;;;;;;9.18;99.82;101891.97;6273250;28;20135;-73
2021/11/10 10:45:43;;;;;;;20.88;13.70;;;;;;;9.13;98.34;101892.09;6273374;28;20041;-73
2021/11/10 10:48:44;;;;;;;26.00;15.45;;;;;;;9.12;98.08;101882.59;6273269;28;20063;-73
2021/11/10 10:51:47;;;;;;;26.70;15.45;;;;;;;9.31;95.48;101888.16;6256558;28;20503;-73
2021/11/10 10:54:50;;;;;;;22.80;14.13;;;;;;;9.47;98.53;101884.25;6274373;28;20040;-73
2021/11/10 10:57:57;;;;;;;23.83;15.85;;;;;;;9.68;95.14;101876.75;6274236;28;20513;-73
2021/11/10 11:01:00;;;;;;;23.95;15.05;;;;;;;9.87;92.83;101877.06;6257134;28;20029;-74
2021/11/10 11:04:09;;;;;;;20.40;13.98;;;;;;;9.91;95.86;101872.63;6273976;28;20045;-74
2021/11/10 11:07:11;;;;;;;22.42;13.98;;;;;;;10.04;94.22;101871.34;6272846;28;20124;-73
2021/11/10 11:10:12;;;;;;;20.73;13.63;;;;;;;9.95;93.57;101869.03;6274002;28;20127;-74
2021/11/10 11:13:17;;;;;;;22.63;14.20;;;;;;;10.06;91.65;101872.16;6273618;28;20545;-74
2021/11/10 11:16:21;;;;;;;20.83;14.30;;;;;;;10.08;92.21;101865.13;6273981;28;20041;-74
2021/11/10 11:19:22;;;;;;;20.98;13.63;;;;;;;10.17;94.17;101854.44;6272485;28;20045;-73
2021/11/10 11:22:25;;;;;;;19.08;12.98;;;;;;;10.18;90.58;101852.69;6273893;28;20045;-73
2021/11/10 11:25:34;;;;;;;22.20;13.68;;;;;;;10.08;93.51;101850.34;6272357;28;20194;-73
2021/11/10 11:28:38;;;;;;;22.15;13.40;;;;;;;10.14;93.63;101849.31;6272446;28;20470;-73
2021/11/10 11:31:39;;;;;;;19.88;13.88;;;;;;;10.22;90.81;101855.13;6273531;28;20041;-73
2021/11/10 11:34:49;;;;;;;22.77;13.23;;;;;;;10.22;90.24;101849.06;6273317;28;20416;-73
2021/11/10 11:38:02;;;;;;;19.08;12.75;;;;;;;10.04;86.71;101853.94;6273712;28;20045;-73
2021/11/10 11:41:03;;;;;;;22.25;13.77;;;;;;;10.17;89.23;101849.22;6273290;28;20411;-74
2021/11/10 11:44:04;;;;;;;19.85;13.30;;;;;;;10.05;88.42;101844.38;6273128;28;20041;-73
2021/11/10 11:47:08;;;;;;;20.48;13.20;;;;;;;10.23;86.46;101841.22;6271877;28;20484;-74
2021/11/10 11:50:09;;;;;;;18.08;13.00;;;;;;;10.27;91.93;101832.38;6273174;28;20051;-73
2021/11/10 11:53:11;;;;;;;21.38;14.18;;;;;;;10.44;86.51;101823.19;6272779;28;20061;-74
2021/11/10 11:56:13;;;;;;;19.75;13.32;;;;;;;10.49;88.29;101822.13;6272883;28;20102;-74
2021/11/10 11:59:15;;;;;;;18.58;12.77;;;;;;;10.31;84.59;101827.09;6271559;28;20047;-71
2021/11/10 12:02:28;;;;;;;19.50;13.18;;;;;;;10.33;86.55;101814.84;6255053;28;20545;-70
2021/11/10 12:05:29;;;;;;;19.98;13.02;;;;;;;10.19;85.81;101810.91;6272623;28;20040;-71
2021/11/10 12:08:50;;;;;;;19.75;13.32;;;;;;;10.01;88.02;101812.31;6272642;28;20109;-70
2021/11/10 12:11:53;;;;;;;22.90;12.90;;;;;;;10.31;88.76;101806.22;6271274;28;20457;-70
2021/11/10 12:14:58;;;;;;;22.45;14.02;;;;;;;10.54;88.30;101808.06;6272381;28;20033;-71
2021/11/10 12:18:11;;;;;;;19.88;12.70;;;;;;;10.67;86.72;101802.41;6272259;28;20041;-71
2021/11/10 12:21:14;;;;;;;19.35;12.38;;;;;;;10.77;81.45;101805.56;6254693;28;20541;-74
2021/11/10 12:24:18;;;;;;;16.60;12.00;;;;;;;10.72;82.28;101798.78;6270556;28;20037;-74
2021/11/10 12:27:31;;;;;;;22.08;12.70;;;;;;;10.85;83.88;101790.50;6272216;28;20513;-73
2021/11/10 12:30:32;;;;;;;19.50;12.35;;;;;;;10.84;79.92;101793.16;6272035;28;20514;-70
2021/11/10 12:33:33;;;;;;;17.30;12.07;;;;;;;10.63;79.24;101787.75;6270840;28;20041;-71
2021/11/10 12:36:48;;;;;;;23.17;12.80;;;;;;;10.63;83.47;101787.75;6270783;28;20407;-71
2021/11/10 12:39:49;;;;;;;18.75;12.40;;;;;;;10.63;83.15;101789.50;6271870;28;20068;-71
2021/11/10 12:43:15;;;;;;;17.08;11.65;;;;;;;10.71;80.60;101784.88;6270526;28;20041;-71
2021/11/10 12:46:20;;;;;;;17.55;11.63;;;;;;;10.39;81.79;101778.13;6268820;28;20139;-70
2021/11/10 12:49:22;;;;;;;20.98;13.80;;;;;;;10.25;87.41;101781.13;6272996;28;20079;-70
2021/11/10 12:52:23;;;;;;;19.75;13.70;;;;;;;9.89;87.09;101776.19;6283723;28;20059;-70
2021/11/10 12:55:28;;;;;;;22.17;13.68;;;;;;;9.85;87.44;101777.19;6270066;28;20037;-71
2021/11/10 12:58:29;;;;;;;19.00;13.57;;;;;;;9.94;86.89;101770.81;6270230;28;20395;-71
2021/11/10 13:01:33;;;;;;;21.23;14.18;;;;;;;10.07;86.01;101780.84;6270192;28;20045;-72
2021/11/10 13:04:34;;;;;;;21.40;14.48;;;;;;;9.95;87.06;101778.59;6271262;28;20139;-71
2021/11/10 13:07:37;;;;;;;20.63;13.30;;;;;;;10.00;88.05;101768.88;6253738;28;20040;-71
2021/11/10 13:10:37;;;;;;;19.05;13.40;;;;;;;10.09;87.19;101767.75;6271253;28;20051;-72
2021/11/10 13:13:38;;;;;;;22.52;14.27;;;;;;;9.93;87.89;101756.94;6253349;28;20044;-71
2021/11/10 13:17:01;;;;;;;20.92;14.27;;;;;;;9.79;87.40;101756.50;6283220;28;20115;-71
2021/11/10 13:20:07;;;;;;;;;;;;;;;9.79;85.64;101756.50;6275408;28;20126;-70
2021/11/10 13:23:08;;;;;;;19.58;12.65;;;;;;;9.68;87.15;101762.06;6294788;28;19927;-70
2021/11/10 13:26:11;;;;;;;17.42;12.57;;;;;;;9.57;87.31;101762.34;6294594;28;20045;-72
2021/11/10 13:29:11;;;;;;;;;;;;;;;9.63;88.83;101759.56;6294893;28;20106;-71
2021/11/10 13:32:15;;;;;;;20.30;14.27;;;;;;;9.64;90.21;101753.47;6294733;28;20308;-70
2021/11/10 13:35:17;;;;;;;22.10;13.45;;;;;;;9.48;91.02;101745.25;6282550;28;20499;-71
2021/11/10 13:38:17;;;;;;;19.20;13.77;;;;;;;9.55;90.28;101753.72;6254214;28;20067;-71
2021/11/10 13:41:40;;;;;;;21.33;13.85;;;;;;;9.50;88.39;101753.03;6270591;28;20321;-70
2021/11/10 13:44:41;;;;;;;20.95;13.65;;;;;;;9.32;92.46;101745.75;6270871;28;20539;-70
2021/11/10 13:48:03;;;;;;;22.73;13.65;;;;;;;9.17;92.40;101740.06;6313280;28;20048;-71